Startpagina
METAR-TAF:

METAR-TAF

Vliegvelden :

Nouakchott, Mauretanië

Internationale luchthaven van Nouakchott

breedte: 18-18-36N, lengte: 015-58-11W, hoogte: 3 m

Actueel weer

Dit bericht is 46 minuten geleden gemaakt, om 18:30 UTC
Wind 9 kt uit het noordnoordwesten
Temperatuur 31°C
Vochtigheid 38%
Druk 1012 hPa
Zicht: 8000 m

METAR: GQNO 211830Z 33009KT 8000 NSC 31/15 Q1012 NOSIG

Tijdstip: 19:16 (19:16 UTC)

Verwachting

Dit bericht is 2 uur en het 16 minuten geleden gemaakt, om 17:00 UTC
Verwachting geldig van 21 om 18 UTC tot 22 om 24 UTC
Wind 12 kt uit het noordnoordwesten
Zicht: 7000 m
Tijdelijke
van 22 om 10 UTC tot 22 om 16 UTC
Wind 14 kt uit het oosten

TAF: GQNO 211700Z 2118/2224 34012KT 7000 NSC TEMPO 2210/2216 08014KT

Waarnemingen en weersverwachtingen van meer dan 4000 vliegvelden (METAR en TAF).

De beschikbare stations zijn de gele en rode punten op de kaart.

Ga met uw muis naar het station om de naam te zien.

Klik dan om waarnemingen en weersverwachtingen te zien.

kaart wijzigen: klik op de groene knoppen met een zwart kruis om in te zoomen, op de groene knop met een streepje om uit te zoomen of op de groene pijlen voor aangrenzende kaarten.


METAR-TAF: